Pangborn Memorial Airport
KEAT : rendu visible

Aérodrome :











RETROUVEZ-NOUS SUR...

 
LOGIN :

S'inscrire | Disclaimer

   EN    FR    IT 

 









Légende :    VFR   VFR Marginal   IFR   IFR Intensif   IFR Très Intensif
Visi : 
Plafond : 
>= 8 km
>= 3000ft
5 à 8 km
1000 à 3000 ft
1500m à 5 km
500 à 1000 ft
800 à 1500m
200 à 500 ft
< 800m
< 200 ft
Symboles :   Orages  Brouillard  Fortes neiges  Fortes précipitations  Vent > 20 kt






- Altitude de l'aérodrome : 1249 ft


KEAT - Pangborn Memorial

DERNIER METAR :
  • 242209Z AUTO 00000KT 4SM BR OVC002 02/02 A2993 RMK AO2 T00220017

METARs EXPIRÉS :
  • 242155Z AUTO 31004KT 2SM BR OVC003 02/02 A2994 RMK AO2 SLP148 T00170017
  • 242101Z AUTO 10006KT 4SM BR OVC002 02/02 A2993 RMK AO2 T00220017
  • 242042Z AUTO 14003KT 1/2SM FG OVC003 02/02 A2993 RMK AO2 T00170017
  • 241955Z AUTO 12004KT 10SM OVC003 02/01 A2993 RMK AO2 SLP146 T00170011
  • 241942Z AUTO 08005KT 5SM BR OVC003 01/01 A2993 RMK AO2 T00110006
  • 241924Z AUTO 13006KT 4SM BR OVC005 02/01 A2993 RMK AO2 T00170011
  • 241916Z AUTO 00000KT 1/4SM FG OVC005 01/01 A2993 RMK AO2 T00110011

TAF KEAT
Valide du 24 à 22h jusqu'au 25 à 18h UTC


242202Z 2422/2518 VRB04KT P6SM OVC008
TEMPO 2422/2502 2SM BR BKN003
FM250600 VRB04KT 3SM BR OVC007
FM251300 VRB04KT 3SM -RASN BR OVC008



MET'MAP, la Météo Aéronautique d'un coup d'oeil ! - Copyright ORBIFLY Décembre 2007 - Disclaimer

ORBIFLY MET'MAP TEAM :

Programmation & Développement : Alexandra Zaïnal
Sur une idée originale de : Baudouin d'Aumeries
Assistance à la programmation : Marc-Olivier Méhu
Soutien technique & logistique : Manuel Goepfert

Contact : metmap@orbifly.com




SOURCES & CREDITS :

   NOAA       Earth
Advisory